sensor_id;sensor_type;location;lat;lon;timestamp;pressure;altitude;pressure_sealevel;temperature;humidity
66689;BME280;53587;59.318;18.084;2023-05-12T00:00:37;102648.50;;;20.35;88.18
66689;BME280;53587;59.318;18.084;2023-05-12T00:03:02;102635.53;;;20.14;84.37
66689;BME280;53587;59.318;18.084;2023-05-12T00:05:28;102629.28;;;19.57;81.18
66689;BME280;53587;59.318;18.084;2023-05-12T00:07:54;102639.66;;;19.27;81.31
66689;BME280;53587;59.318;18.084;2023-05-12T00:10:19;102641.16;;;19.01;82.11
66689;BME280;53587;59.318;18.084;2023-05-12T00:12:44;102636.56;;;19.24;85.01
66689;BME280;53587;59.318;18.084;2023-05-12T00:15:10;102630.84;;;19.70;88.55
66689;BME280;53587;59.318;18.084;2023-05-12T00:17:35;102632.16;;;20.06;87.53
66689;BME280;53587;59.318;18.084;2023-05-12T00:20:00;102637.94;;;20.32;87.87
66689;BME280;53587;59.318;18.084;2023-05-12T00:22:26;102630.59;;;19.93;82.55
66689;BME280;53587;59.318;18.084;2023-05-12T00:24:51;102636.09;;;19.49;80.51
66689;BME280;53587;59.318;18.084;2023-05-12T00:27:17;102632.06;;;19.18;80.70
66689;BME280;53587;59.318;18.084;2023-05-12T00:29:42;102645.47;;;18.92;82.68
66689;BME280;53587;59.318;18.084;2023-05-12T00:32:07;102655.91;;;19.24;88.03
66689;BME280;53587;59.318;18.084;2023-05-12T00:34:32;102648.25;;;19.70;88.14
66689;BME280;53587;59.318;18.084;2023-05-12T00:36:58;102652.03;;;20.03;87.24
66689;BME280;53587;59.318;18.084;2023-05-12T00:39:23;102648.47;;;20.30;85.63
66689;BME280;53587;59.318;18.084;2023-05-12T00:41:53;102655.78;;;19.92;80.88
66689;BME280;53587;59.318;18.084;2023-05-12T00:44:18;102658.63;;;19.41;80.33
66689;BME280;53587;59.318;18.084;2023-05-12T00:46:44;102654.72;;;19.20;81.07
66689;BME280;53587;59.318;18.084;2023-05-12T00:49:09;102660.59;;;19.06;83.41
66689;BME280;53587;59.318;18.084;2023-05-12T00:51:34;102667.22;;;19.61;87.79
66689;BME280;53587;59.318;18.084;2023-05-12T00:53:59;102658.88;;;19.95;86.79
66689;BME280;53587;59.318;18.084;2023-05-12T00:56:25;102664.16;;;20.24;86.21
66689;BME280;53587;59.318;18.084;2023-05-12T00:58:50;102651.75;;;20.05;80.70
66689;BME280;53587;59.318;18.084;2023-05-12T01:01:15;102661.91;;;19.55;79.75
66689;BME280;53587;59.318;18.084;2023-05-12T01:03:41;102662.94;;;19.14;80.41
66689;BME280;53587;59.318;18.084;2023-05-12T01:06:17;102674.16;;;18.91;81.75
66689;BME280;53587;59.318;18.084;2023-05-12T01:08:45;102665.75;;;19.37;87.45
66689;BME280;53587;59.318;18.084;2023-05-12T01:11:11;102666.69;;;19.82;85.94
66689;BME280;53587;59.318;18.084;2023-05-12T01:13:36;102669.88;;;20.13;85.05
66689;BME280;53587;59.318;18.084;2023-05-12T01:16:03;102669.97;;;20.23;82.68
66689;BME280;53587;59.318;18.084;2023-05-12T01:18:30;102669.28;;;19.71;79.58
66689;BME280;53587;59.318;18.084;2023-05-12T01:20:57;102669.06;;;19.34;78.65
66689;BME280;53587;59.318;18.084;2023-05-12T01:23:34;102675.66;;;19.15;79.64
66689;BME280;53587;59.318;18.084;2023-05-12T01:26:07;102688.56;;;19.27;84.73
66689;BME280;53587;59.318;18.084;2023-05-12T01:28:33;102680.94;;;19.73;85.91
66689;BME280;53587;59.318;18.084;2023-05-12T01:30:59;102683.56;;;20.02;84.64
66689;BME280;53587;59.318;18.084;2023-05-12T01:33:24;102692.16;;;20.28;83.71
66689;BME280;53587;59.318;18.084;2023-05-12T01:35:49;102688.00;;;20.03;78.07
66689;BME280;53587;59.318;18.084;2023-05-12T01:38:15;102687.50;;;19.67;76.99
66689;BME280;53587;59.318;18.084;2023-05-12T01:40:40;102689.47;;;19.50;76.79
66689;BME280;53587;59.318;18.084;2023-05-12T01:43:05;102698.13;;;19.19;78.84
66689;BME280;53587;59.318;18.084;2023-05-12T01:45:30;102692.38;;;19.60;83.32
66689;BME280;53587;59.318;18.084;2023-05-12T01:47:55;102693.16;;;19.94;83.26
66689;BME280;53587;59.318;18.084;2023-05-12T01:50:21;102686.53;;;20.18;82.81
66689;BME280;53587;59.318;18.084;2023-05-12T01:52:46;102684.53;;;20.13;79.01
66689;BME280;53587;59.318;18.084;2023-05-12T01:55:11;102690.28;;;19.67;77.79
66689;BME280;53587;59.318;18.084;2023-05-12T01:57:36;102693.06;;;19.33;77.31
66689;BME280;53587;59.318;18.084;2023-05-12T02:00:02;102690.34;;;18.99;79.21
66689;BME280;53587;59.318;18.084;2023-05-12T02:02:27;102700.47;;;19.27;84.54
66689;BME280;53587;59.318;18.084;2023-05-12T02:04:55;102696.38;;;19.69;83.69
66689;BME280;53587;59.318;18.084;2023-05-12T02:07:20;102695.72;;;20.01;83.50
66689;BME280;53587;59.318;18.084;2023-05-12T02:09:45;102697.59;;;20.18;80.51
66689;BME280;53587;59.318;18.084;2023-05-12T02:12:11;102700.31;;;19.73;78.02
66689;BME280;53587;59.318;18.084;2023-05-12T02:14:36;102698.44;;;19.40;77.62
66689;BME280;53587;59.318;18.084;2023-05-12T02:17:01;102698.75;;;18.92;78.65
66689;BME280;53587;59.318;18.084;2023-05-12T02:19:28;102700.97;;;18.78;81.60
66689;BME280;53587;59.318;18.084;2023-05-12T02:21:53;102701.44;;;19.38;84.66
66689;BME280;53587;59.318;18.084;2023-05-12T02:24:18;102710.28;;;19.74;83.35
66689;BME280;53587;59.318;18.084;2023-05-12T02:26:45;102700.75;;;20.04;82.67
66689;BME280;53587;59.318;18.084;2023-05-12T02:29:10;102700.63;;;20.16;81.06
66689;BME280;53587;59.318;18.084;2023-05-12T02:31:36;102697.03;;;19.76;77.22
66689;BME280;53587;59.318;18.084;2023-05-12T02:34:01;102697.44;;;19.29;77.94
66689;BME280;53587;59.318;18.084;2023-05-12T02:36:26;102698.28;;;18.95;79.11
66689;BME280;53587;59.318;18.084;2023-05-12T02:38:51;102700.28;;;19.00;82.15
66689;BME280;53587;59.318;18.084;2023-05-12T02:41:16;102708.16;;;19.59;83.76
66689;BME280;53587;59.318;18.084;2023-05-12T02:43:41;102687.63;;;19.94;82.29
66689;BME280;53587;59.318;18.084;2023-05-12T02:46:07;102701.13;;;20.13;79.95
66689;BME280;53587;59.318;18.084;2023-05-12T02:48:32;102707.00;;;19.77;78.17
66689;BME280;53587;59.318;18.084;2023-05-12T02:50:57;102710.16;;;19.47;77.96
66689;BME280;53587;59.318;18.084;2023-05-12T02:53:22;102699.63;;;19.27;76.57
66689;BME280;53587;59.318;18.084;2023-05-12T02:55:48;102703.72;;;19.24;79.83
66689;BME280;53587;59.318;18.084;2023-05-12T02:58:13;102711.22;;;19.63;84.08
66689;BME280;53587;59.318;18.084;2023-05-12T03:00:38;102706.41;;;19.92;84.80
66689;BME280;53587;59.318;18.084;2023-05-12T03:03:03;102706.47;;;20.20;82.34
66689;BME280;53587;59.318;18.084;2023-05-12T03:05:29;102709.56;;;20.01;78.16
66689;BME280;53587;59.318;18.084;2023-05-12T03:07:54;102710.28;;;19.74;76.99
66689;BME280;53587;59.318;18.084;2023-05-12T03:10:19;102712.50;;;19.38;76.40
66689;BME280;53587;59.318;18.084;2023-05-12T03:12:45;102713.34;;;19.22;76.35
66689;BME280;53587;59.318;18.084;2023-05-12T03:15:10;102707.31;;;19.42;79.69
66689;BME280;53587;59.318;18.084;2023-05-12T03:17:35;102713.88;;;19.75;79.44
66689;BME280;53587;59.318;18.084;2023-05-12T03:20:01;102710.22;;;20.08;79.16
66689;BME280;53587;59.318;18.084;2023-05-12T03:22:27;102712.03;;;19.81;76.12
66689;BME280;53587;59.318;18.084;2023-05-12T03:24:52;102716.59;;;19.36;75.98
66689;BME280;53587;59.318;18.084;2023-05-12T03:27:17;102715.81;;;18.89;79.44
66689;BME280;53587;59.318;18.084;2023-05-12T03:29:42;102715.75;;;18.55;80.80
66689;BME280;53587;59.318;18.084;2023-05-12T03:32:08;102721.56;;;18.88;84.91
66689;BME280;53587;59.318;18.084;2023-05-12T03:34:33;102724.34;;;19.34;85.30
66689;BME280;53587;59.318;18.084;2023-05-12T03:36:58;102725.69;;;19.70;82.48
66689;BME280;53587;59.318;18.084;2023-05-12T03:39:23;102712.41;;;20.06;80.17
66689;BME280;53587;59.318;18.084;2023-05-12T03:41:49;102713.03;;;20.14;77.85
66689;BME280;53587;59.318;18.084;2023-05-12T03:44:14;102716.19;;;19.61;76.44
66689;BME280;53587;59.318;18.084;2023-05-12T03:46:39;102719.81;;;19.27;75.57
66689;BME280;53587;59.318;18.084;2023-05-12T03:49:05;102726.91;;;19.06;76.72
66689;BME280;53587;59.318;18.084;2023-05-12T03:51:30;102724.94;;;19.19;80.91
66689;BME280;53587;59.318;18.084;2023-05-12T03:53:55;102724.41;;;19.56;80.79
66689;BME280;53587;59.318;18.084;2023-05-12T03:56:21;102722.19;;;19.92;80.17
66689;BME280;53587;59.318;18.084;2023-05-12T03:58:46;102709.81;;;20.22;78.52
66689;BME280;53587;59.318;18.084;2023-05-12T04:01:12;102708.63;;;19.73;74.84
66689;BME280;53587;59.318;18.084;2023-05-12T04:03:37;102716.38;;;19.20;76.89
66689;BME280;53587;59.318;18.084;2023-05-12T04:06:02;102713.44;;;18.93;76.15
66689;BME280;53587;59.318;18.084;2023-05-12T04:08:28;102723.28;;;18.60;78.49
66689;BME280;53587;59.318;18.084;2023-05-12T04:10:57;102719.22;;;19.08;84.79
66689;BME280;53587;59.318;18.084;2023-05-12T04:13:23;102713.25;;;19.51;85.34
66689;BME280;53587;59.318;18.084;2023-05-12T04:15:48;102718.25;;;19.88;81.53
66689;BME280;53587;59.318;18.084;2023-05-12T04:18:14;102712.00;;;20.20;79.82
66689;BME280;53587;59.318;18.084;2023-05-12T04:20:39;102707.97;;;20.05;76.22
66689;BME280;53587;59.318;18.084;2023-05-12T04:23:04;102714.91;;;19.52;75.62
66689;BME280;53587;59.318;18.084;2023-05-12T04:25:30;102722.56;;;19.10;76.18
66689;BME280;53587;59.318;18.084;2023-05-12T04:27:55;102710.34;;;18.77;77.54
66689;BME280;53587;59.318;18.084;2023-05-12T04:30:20;102717.38;;;18.85;83.28
66689;BME280;53587;59.318;18.084;2023-05-12T04:32:46;102711.34;;;19.34;84.29
66689;BME280;53587;59.318;18.084;2023-05-12T04:35:12;102716.66;;;19.75;81.84
66689;BME280;53587;59.318;18.084;2023-05-12T04:37:37;102703.00;;;20.07;78.98
66689;BME280;53587;59.318;18.084;2023-05-12T04:40:02;102713.50;;;20.05;76.09
66689;BME280;53587;59.318;18.084;2023-05-12T04:42:28;102711.16;;;19.41;76.06
66689;BME280;53587;59.318;18.084;2023-05-12T04:44:53;102722.22;;;19.07;76.85
66689;BME280;53587;59.318;18.084;2023-05-12T04:47:18;102718.69;;;18.65;76.59
66689;BME280;53587;59.318;18.084;2023-05-12T04:49:44;102710.94;;;18.79;83.10
66689;BME280;53587;59.318;18.084;2023-05-12T04:52:09;102715.19;;;19.33;82.25
66689;BME280;53587;59.318;18.084;2023-05-12T04:54:34;102713.06;;;19.74;79.82
66689;BME280;53587;59.318;18.084;2023-05-12T04:56:59;102709.38;;;20.08;78.09
66689;BME280;53587;59.318;18.084;2023-05-12T04:59:24;102700.53;;;19.89;75.48
66689;BME280;53587;59.318;18.084;2023-05-12T05:01:50;102707.97;;;19.32;75.55
66689;BME280;53587;59.318;18.084;2023-05-12T05:04:15;102714.00;;;18.95;77.00
66689;BME280;53587;59.318;18.084;2023-05-12T05:06:40;102709.16;;;18.44;79.51
66689;BME280;53587;59.318;18.084;2023-05-12T05:09:06;102716.56;;;18.85;81.99
66689;BME280;53587;59.318;18.084;2023-05-12T05:11:31;102714.69;;;19.36;82.25
66689;BME280;53587;59.318;18.084;2023-05-12T05:13:56;102699.84;;;19.99;80.14
66689;BME280;53587;59.318;18.084;2023-05-12T05:16:22;102706.47;;;19.98;77.42
66689;BME280;53587;59.318;18.084;2023-05-12T05:18:47;102716.75;;;19.63;78.13
66689;BME280;53587;59.318;18.084;2023-05-12T05:21:12;102715.00;;;19.57;79.14
66689;BME280;53587;59.318;18.084;2023-05-12T05:23:40;102708.63;;;19.56;79.37
66689;BME280;53587;59.318;18.084;2023-05-12T05:28:30;102706.84;;;20.51;80.34
66689;BME280;53587;59.318;18.084;2023-05-12T05:30:56;102702.16;;;20.29;79.13
66689;BME280;53587;59.318;18.084;2023-05-12T05:33:21;102705.31;;;20.16;78.73
66689;BME280;53587;59.318;18.084;2023-05-12T05:35:47;102704.72;;;19.91;76.90
66689;BME280;53587;59.318;18.084;2023-05-12T05:38:12;102710.19;;;19.69;80.50
66689;BME280;53587;59.318;18.084;2023-05-12T05:40:37;102711.56;;;20.55;87.42
66689;BME280;53587;59.318;18.084;2023-05-12T05:43:03;102707.66;;;20.73;84.47
66689;BME280;53587;59.318;18.084;2023-05-12T05:45:28;102705.72;;;20.52;80.19
66689;BME280;53587;59.318;18.084;2023-05-12T05:47:53;102712.31;;;20.46;78.41
66689;BME280;53587;59.318;18.084;2023-05-12T05:50:19;102704.50;;;19.93;74.40
66689;BME280;53587;59.318;18.084;2023-05-12T05:52:44;102708.66;;;20.67;86.09
66689;BME280;53587;59.318;18.084;2023-05-12T05:55:09;102712.28;;;20.95;85.04
66689;BME280;53587;59.318;18.084;2023-05-12T05:57:34;102711.75;;;20.43;78.46
66689;BME280;53587;59.318;18.084;2023-05-12T06:00:00;102713.63;;;19.76;75.75
66689;BME280;53587;59.318;18.084;2023-05-12T06:02:25;102714.72;;;20.64;87.42
66689;BME280;53587;59.318;18.084;2023-05-12T06:04:50;102711.59;;;20.83;85.09
66689;BME280;53587;59.318;18.084;2023-05-12T06:07:16;102705.84;;;20.13;76.86
66689;BME280;53587;59.318;18.084;2023-05-12T06:09:41;102717.28;;;20.43;84.54
66689;BME280;53587;59.318;18.084;2023-05-12T06:12:07;102714.44;;;20.88;85.43
66689;BME280;53587;59.318;18.084;2023-05-12T06:14:32;102708.59;;;20.35;76.25
66689;BME280;53587;59.318;18.084;2023-05-12T06:16:57;102705.69;;;20.02;80.03
66689;BME280;53587;59.318;18.084;2023-05-12T06:19:22;102715.75;;;20.80;87.97
66689;BME280;53587;59.318;18.084;2023-05-12T06:21:48;102715.19;;;20.78;81.88
66689;BME280;53587;59.318;18.084;2023-05-12T06:24:13;102721.16;;;19.98;72.64
66689;BME280;53587;59.318;18.084;2023-05-12T06:26:38;102720.75;;;20.56;86.47
66689;BME280;53587;59.318;18.084;2023-05-12T06:29:06;102715.00;;;20.90;86.52
66689;BME280;53587;59.318;18.084;2023-05-12T06:31:32;102716.13;;;19.95;75.93
66689;BME280;53587;59.318;18.084;2023-05-12T06:33:57;102713.22;;;20.29;84.68
66689;BME280;53587;59.318;18.084;2023-05-12T06:36:22;102718.34;;;20.92;88.63
66689;BME280;53587;59.318;18.084;2023-05-12T06:38:47;102713.47;;;20.50;79.40
66689;BME280;53587;59.318;18.084;2023-05-12T06:41:14;102719.91;;;20.11;82.04
66689;BME280;53587;59.318;18.084;2023-05-12T06:43:39;102720.53;;;20.90;88.78
66689;BME280;53587;59.318;18.084;2023-05-12T06:46:04;102722.69;;;20.83;81.07
66689;BME280;53587;59.318;18.084;2023-05-12T06:48:30;102723.09;;;19.81;74.59
66689;BME280;53587;59.318;18.084;2023-05-12T06:50:55;102736.63;;;20.66;87.22
66689;BME280;53587;59.318;18.084;2023-05-12T06:53:20;102718.03;;;20.88;86.36
66689;BME280;53587;59.318;18.084;2023-05-12T06:55:45;102724.75;;;20.21;75.43
66689;BME280;53587;59.318;18.084;2023-05-12T06:58:11;102727.41;;;20.33;84.95
66689;BME280;53587;59.318;18.084;2023-05-12T07:00:36;102733.31;;;20.91;89.25
66689;BME280;53587;59.318;18.084;2023-05-12T07:03:01;102727.75;;;20.64;80.99
66689;BME280;53587;59.318;18.084;2023-05-12T07:05:26;102733.53;;;20.13;82.63
66689;BME280;53587;59.318;18.084;2023-05-12T07:07:52;102731.25;;;20.81;87.90
66689;BME280;53587;59.318;18.084;2023-05-12T07:10:17;102725.75;;;20.59;81.67
66689;BME280;53587;59.318;18.084;2023-05-12T07:12:42;102736.00;;;19.92;80.85
66689;BME280;53587;59.318;18.084;2023-05-12T07:15:08;102733.22;;;20.81;88.85
66689;BME280;53587;59.318;18.084;2023-05-12T07:17:33;102729.72;;;20.68;82.77
66689;BME280;53587;59.318;18.084;2023-05-12T07:19:58;102731.50;;;19.86;79.36
66689;BME280;53587;59.318;18.084;2023-05-12T07:22:24;102731.53;;;20.80;89.26
66689;BME280;53587;59.318;18.084;2023-05-12T07:24:49;102728.97;;;20.73;82.63
66689;BME280;53587;59.318;18.084;2023-05-12T07:27:14;102729.88;;;19.73;74.68
66689;BME280;53587;59.318;18.084;2023-05-12T07:29:40;102736.94;;;20.69;88.05
66689;BME280;53587;59.318;18.084;2023-05-12T07:32:05;102736.63;;;20.88;84.50
66689;BME280;53587;59.318;18.084;2023-05-12T07:34:31;102735.06;;;20.03;75.79
66689;BME280;53587;59.318;18.084;2023-05-12T07:36:57;102740.81;;;19.45;82.79
66689;BME280;53587;59.318;18.084;2023-05-12T07:39:23;102728.69;;;20.47;90.09
66689;BME280;53587;59.318;18.084;2023-05-12T07:41:49;102732.66;;;20.84;87.55
66689;BME280;53587;59.318;18.084;2023-05-12T07:44:14;102735.50;;;20.17;78.05
66689;BME280;53587;59.318;18.084;2023-05-12T07:46:40;102731.63;;;20.40;86.23
66689;BME280;53587;59.318;18.084;2023-05-12T07:49:05;102728.38;;;20.98;88.83
66689;BME280;53587;59.318;18.084;2023-05-12T07:51:31;102732.63;;;20.56;80.65
66689;BME280;53587;59.318;18.084;2023-05-12T07:53:56;102730.94;;;20.28;82.71
66689;BME280;53587;59.318;18.084;2023-05-12T07:56:22;102731.38;;;20.91;86.66
66689;BME280;53587;59.318;18.084;2023-05-12T07:58:47;102728.88;;;20.40;81.32
66689;BME280;53587;59.318;18.084;2023-05-12T08:01:12;102733.25;;;19.92;80.53
66689;BME280;53587;59.318;18.084;2023-05-12T08:03:37;102739.53;;;20.76;90.00
66689;BME280;53587;59.318;18.084;2023-05-12T08:06:03;102733.88;;;20.93;85.10
66689;BME280;53587;59.318;18.084;2023-05-12T08:08:29;102731.63;;;19.79;73.80
66689;BME280;53587;59.318;18.084;2023-05-12T08:10:55;102743.22;;;20.59;87.75
66689;BME280;53587;59.318;18.084;2023-05-12T08:13:20;102742.59;;;21.07;88.12
66689;BME280;53587;59.318;18.084;2023-05-12T08:15:47;102739.53;;;20.54;78.94
66689;BME280;53587;59.318;18.084;2023-05-12T08:18:13;102733.19;;;20.53;85.32
66689;BME280;53587;59.318;18.084;2023-05-12T08:20:38;102740.41;;;21.09;88.90
66689;BME280;53587;59.318;18.084;2023-05-12T08:23:03;102742.56;;;20.52;78.54
66689;BME280;53587;59.318;18.084;2023-05-12T08:25:28;102737.13;;;20.35;84.19
66689;BME280;53587;59.318;18.084;2023-05-12T08:27:54;102738.34;;;20.94;89.56
66689;BME280;53587;59.318;18.084;2023-05-12T08:30:21;102739.00;;;20.79;81.78
66689;BME280;53587;59.318;18.084;2023-05-12T08:32:46;102738.78;;;20.36;80.45
66689;BME280;53587;59.318;18.084;2023-05-12T08:35:11;102740.09;;;21.05;86.47
66689;BME280;53587;59.318;18.084;2023-05-12T08:37:37;102733.09;;;20.98;80.32
66689;BME280;53587;59.318;18.084;2023-05-12T08:40:02;102731.09;;;19.60;71.88
66689;BME280;53587;59.318;18.084;2023-05-12T08:42:35;102736.53;;;20.11;85.78
66689;BME280;53587;59.318;18.084;2023-05-12T08:45:01;102729.13;;;20.88;90.22
66689;BME280;53587;59.318;18.084;2023-05-12T08:47:27;102724.91;;;20.31;79.48
66689;BME280;53587;59.318;18.084;2023-05-12T08:50:00;102738.44;;;19.88;83.81
66689;BME280;53587;59.318;18.084;2023-05-12T08:52:26;102728.03;;;20.89;90.25
66689;BME280;53587;59.318;18.084;2023-05-12T08:54:53;102739.09;;;20.62;83.21
66689;BME280;53587;59.318;18.084;2023-05-12T08:57:19;102730.28;;;19.25;77.28
66689;BME280;53587;59.318;18.084;2023-05-12T08:59:45;102734.41;;;20.68;88.50
66689;BME280;53587;59.318;18.084;2023-05-12T09:02:11;102726.97;;;20.68;83.16
66689;BME280;53587;59.318;18.084;2023-05-12T09:04:37;102733.19;;;19.87;72.97
66689;BME280;53587;59.318;18.084;2023-05-12T09:07:03;102734.00;;;19.70;83.08
66689;BME280;53587;59.318;18.084;2023-05-12T09:09:30;102729.09;;;20.83;89.01
66689;BME280;53587;59.318;18.084;2023-05-12T09:11:58;102725.84;;;20.91;83.22
66689;BME280;53587;59.318;18.084;2023-05-12T09:14:25;102713.34;;;20.17;76.20
66689;BME280;53587;59.318;18.084;2023-05-12T09:16:57;102721.22;;;21.02;86.28
66689;BME280;53587;59.318;18.084;2023-05-12T09:19:24;102712.84;;;20.97;79.61
66689;BME280;53587;59.318;18.084;2023-05-12T09:21:49;102713.13;;;20.19;70.58
66689;BME280;53587;59.318;18.084;2023-05-12T09:24:14;102720.56;;;20.18;82.86
66689;BME280;53587;59.318;18.084;2023-05-12T09:26:44;102720.91;;;20.99;87.97
66689;BME280;53587;59.318;18.084;2023-05-12T09:29:09;102709.88;;;20.77;80.83
66689;BME280;53587;59.318;18.084;2023-05-12T09:31:35;102710.47;;;19.51;70.52
66689;BME280;53587;59.318;18.084;2023-05-12T09:34:05;102707.59;;;19.79;86.04
66689;BME280;53587;59.318;18.084;2023-05-12T09:36:32;102712.34;;;21.38;84.43
66689;BME280;53587;59.318;18.084;2023-05-12T09:39:01;102701.06;;;22.97;77.33
66689;BME280;53587;59.318;18.084;2023-05-12T09:41:34;102691.13;;;24.08;72.83
66689;BME280;53587;59.318;18.084;2023-05-12T09:43:59;102696.06;;;24.77;72.80
66689;BME280;53587;59.318;18.084;2023-05-12T09:46:25;102691.34;;;25.36;71.03
66689;BME280;53587;59.318;18.084;2023-05-12T09:48:50;102701.28;;;25.77;68.92
66689;BME280;53587;59.318;18.084;2023-05-12T09:51:19;102687.25;;;26.07;69.07
66689;BME280;53587;59.318;18.084;2023-05-12T09:53:44;102697.19;;;23.40;74.18
66689;BME280;53587;59.318;18.084;2023-05-12T09:56:11;102702.41;;;21.85;69.88
66689;BME280;53587;59.318;18.084;2023-05-12T09:58:37;102695.59;;;20.63;74.47
66689;BME280;53587;59.318;18.084;2023-05-12T10:01:03;102698.91;;;20.59;77.47
66689;BME280;53587;59.318;18.084;2023-05-12T10:03:29;102701.72;;;20.92;82.15
66689;BME280;53587;59.318;18.084;2023-05-12T10:05:58;102697.50;;;21.17;84.50
66689;BME280;53587;59.318;18.084;2023-05-12T10:08:26;102701.50;;;21.31;86.57
66689;BME280;53587;59.318;18.084;2023-05-12T10:10:54;102705.03;;;21.59;86.42
66689;BME280;53587;59.318;18.084;2023-05-12T10:13:20;102699.22;;;21.61;81.98
66689;BME280;53587;59.318;18.084;2023-05-12T10:15:46;102707.56;;;21.28;81.62
66689;BME280;53587;59.318;18.084;2023-05-12T10:18:12;102694.28;;;21.30;83.46
66689;BME280;53587;59.318;18.084;2023-05-12T10:20:38;102703.66;;;21.24;83.43
66689;BME280;53587;59.318;18.084;2023-05-12T10:23:03;102692.13;;;21.37;84.20
66689;BME280;53587;59.318;18.084;2023-05-12T10:25:30;102700.34;;;21.27;82.46
66689;BME280;53587;59.318;18.084;2023-05-12T10:27:56;102701.41;;;21.21;84.20
66689;BME280;53587;59.318;18.084;2023-05-12T10:30:22;102692.31;;;21.31;84.69
66689;BME280;53587;59.318;18.084;2023-05-12T10:32:48;102694.59;;;21.34;84.89
66689;BME280;53587;59.318;18.084;2023-05-12T10:35:14;102695.53;;;21.50;84.14
66689;BME280;53587;59.318;18.084;2023-05-12T10:37:41;102699.56;;;21.37;82.68
66689;BME280;53587;59.318;18.084;2023-05-12T10:40:06;102687.09;;;21.34;83.94
66689;BME280;53587;59.318;18.084;2023-05-12T10:42:38;102683.50;;;21.34;84.12
66689;BME280;53587;59.318;18.084;2023-05-12T10:45:13;102690.38;;;21.26;84.76
66689;BME280;53587;59.318;18.084;2023-05-12T10:47:41;102689.97;;;21.50;84.91
66689;BME280;53587;59.318;18.084;2023-05-12T10:50:06;102686.56;;;21.37;83.72
66689;BME280;53587;59.318;18.084;2023-05-12T10:52:32;102683.56;;;21.49;85.82
66689;BME280;53587;59.318;18.084;2023-05-12T10:55:00;102688.38;;;21.59;86.33
66689;BME280;53587;59.318;18.084;2023-05-12T10:57:27;102681.78;;;21.70;86.42
66689;BME280;53587;59.318;18.084;2023-05-12T10:59:56;102673.53;;;21.81;84.50
66689;BME280;53587;59.318;18.084;2023-05-12T11:02:22;102685.88;;;21.58;81.55
66689;BME280;53587;59.318;18.084;2023-05-12T11:04:50;102683.38;;;21.56;83.87
66689;BME280;53587;59.318;18.084;2023-05-12T11:07:24;102677.47;;;21.47;84.97
66689;BME280;53587;59.318;18.084;2023-05-12T11:09:51;102689.41;;;21.53;84.85
66689;BME280;53587;59.318;18.084;2023-05-12T11:12:18;102680.59;;;21.56;82.96
66689;BME280;53587;59.318;18.084;2023-05-12T11:14:44;102684.13;;;21.46;83.33
66689;BME280;53587;59.318;18.084;2023-05-12T11:17:10;102676.91;;;21.45;84.42
66689;BME280;53587;59.318;18.084;2023-05-12T11:19:36;102678.75;;;21.29;84.88
66689;BME280;53587;59.318;18.084;2023-05-12T11:22:05;102679.38;;;21.42;84.20
66689;BME280;53587;59.318;18.084;2023-05-12T11:24:34;102679.41;;;21.47;82.42
66689;BME280;53587;59.318;18.084;2023-05-12T11:27:00;102678.50;;;21.36;83.66
66689;BME280;53587;59.318;18.084;2023-05-12T11:29:25;102685.75;;;21.42;83.71
66689;BME280;53587;59.318;18.084;2023-05-12T11:31:51;102687.34;;;21.33;81.81
66689;BME280;53587;59.318;18.084;2023-05-12T11:34:23;102682.63;;;21.33;84.04
66689;BME280;53587;59.318;18.084;2023-05-12T11:36:53;102679.34;;;21.36;84.77
66689;BME280;53587;59.318;18.084;2023-05-12T11:39:19;102676.38;;;21.48;84.93
66689;BME280;53587;59.318;18.084;2023-05-12T11:41:45;102675.00;;;21.51;83.54
66689;BME280;53587;59.318;18.084;2023-05-12T11:44:14;102678.22;;;21.32;82.88
66689;BME280;53587;59.318;18.084;2023-05-12T11:46:40;102673.25;;;21.39;83.83
66689;BME280;53587;59.318;18.084;2023-05-12T11:49:08;102681.03;;;21.43;84.11
66689;BME280;53587;59.318;18.084;2023-05-12T11:51:34;102681.88;;;21.43;84.48
66689;BME280;53587;59.318;18.084;2023-05-12T11:54:00;102677.41;;;21.42;82.06
66689;BME280;53587;59.318;18.084;2023-05-12T11:56:25;102675.38;;;21.27;83.72
66689;BME280;53587;59.318;18.084;2023-05-12T11:58:56;102679.41;;;21.47;85.43
66689;BME280;53587;59.318;18.084;2023-05-12T12:01:22;102689.22;;;21.60;86.74
66689;BME280;53587;59.318;18.084;2023-05-12T12:03:48;102677.41;;;21.80;86.92
66689;BME280;53587;59.318;18.084;2023-05-12T12:06:14;102682.69;;;21.86;83.76
66689;BME280;53587;59.318;18.084;2023-05-12T12:11:34;102673.34;;;21.55;83.65
66689;BME280;53587;59.318;18.084;2023-05-12T12:13:59;102682.47;;;21.50;84.80
66689;BME280;53587;59.318;18.084;2023-05-12T12:16:25;102678.97;;;21.65;84.56
66689;BME280;53587;59.318;18.084;2023-05-12T12:18:51;102671.22;;;21.62;83.75
66689;BME280;53587;59.318;18.084;2023-05-12T12:21:17;102671.75;;;21.59;84.87
66689;BME280;53587;59.318;18.084;2023-05-12T12:23:42;102672.94;;;21.74;83.10
66689;BME280;53587;59.318;18.084;2023-05-12T12:26:07;102673.19;;;21.67;83.21
66689;BME280;53587;59.318;18.084;2023-05-12T12:28:33;102675.06;;;21.56;84.05
66689;BME280;53587;59.318;18.084;2023-05-12T12:30:58;102676.47;;;21.59;84.25
66689;BME280;53587;59.318;18.084;2023-05-12T12:33:24;102675.09;;;21.61;84.57
66689;BME280;53587;59.318;18.084;2023-05-12T12:35:49;102671.66;;;21.49;81.66
66689;BME280;53587;59.318;18.084;2023-05-12T12:38:14;102663.00;;;21.40;82.56